createdAt,value
2022-11-27T18:20:23.101Z,33.90
2022-11-27T18:21:29.149Z,34.50
2022-11-27T18:22:37.269Z,33.00
2022-11-27T18:24:14.498Z,34.50
2022-11-27T18:25:08.499Z,33.50
2022-11-27T18:26:18.260Z,32.30
2022-11-27T18:27:32.157Z,30.30
2022-11-27T18:28:37.943Z,33.40
2022-11-27T18:29:45.126Z,32.40
2022-11-27T18:30:49.535Z,33.70
2022-11-27T18:31:53.728Z,32.40
2022-11-27T18:32:59.890Z,33.50
2022-11-27T18:34:04.272Z,32.80
2022-11-27T18:35:08.368Z,33.40
2022-11-27T18:36:16.786Z,33.60
2022-11-27T18:37:23.759Z,32.80
2022-11-27T18:38:33.657Z,33.20
2022-11-27T18:39:40.418Z,32.40
2022-11-27T18:40:46.321Z,33.60
2022-11-27T18:41:52.255Z,31.70
2022-11-27T18:42:57.340Z,33.60
2022-11-27T18:44:05.114Z,32.70
2022-11-27T18:45:31.582Z,32.60
2022-11-27T18:46:39.226Z,33.60
2022-11-27T18:47:44.122Z,33.90
2022-11-27T18:48:54.776Z,34.80
2022-11-27T18:50:01.732Z,34.60
2022-11-27T18:51:09.260Z,33.70
2022-11-27T18:52:14.166Z,34.50
2022-11-27T18:53:20.759Z,33.30
2022-11-27T18:54:25.750Z,33.30
2022-11-27T18:55:35.129Z,33.50
2022-11-27T18:56:41.021Z,32.50
2022-11-27T18:57:46.793Z,34.80
2022-11-27T18:58:54.519Z,34.00
2022-11-27T18:59:58.942Z,35.00
2022-11-27T19:01:11.669Z,35.00
2022-11-27T19:02:15.928Z,34.50
2022-11-27T19:03:21.893Z,34.20
2022-11-27T19:04:25.937Z,34.90
2022-11-27T19:05:30.289Z,34.00
2022-11-27T19:06:38.679Z,34.00
2022-11-27T19:07:42.774Z,33.10
2022-11-27T19:08:48.145Z,34.00
2022-11-27T19:09:51.820Z,32.70
2022-11-27T19:11:00.481Z,33.90
2022-11-27T19:12:05.761Z,34.10
2022-11-27T19:13:10.774Z,34.40
2022-11-27T19:14:15.189Z,35.90
2022-11-27T19:15:21.113Z,35.10
2022-11-27T19:16:35.696Z,32.40
2022-11-27T19:18:47.082Z,33.40
2022-11-27T19:19:55.551Z,35.20
2022-11-27T19:21:11.053Z,34.40
2022-11-27T19:22:20.281Z,35.80
2022-11-27T19:23:27.247Z,35.00
2022-11-27T19:24:32.436Z,35.40
2022-11-27T19:25:41.755Z,34.50
2022-11-27T19:26:45.914Z,33.70
2022-11-27T19:27:52.325Z,34.70
2022-11-27T19:29:01.148Z,35.30
2022-11-27T19:30:06.153Z,32.80
2022-11-27T19:31:13.629Z,32.90
2022-11-27T19:32:17.467Z,32.00
2022-11-27T19:33:24.032Z,32.70
2022-11-27T19:34:28.859Z,32.20
2022-11-27T19:35:35.790Z,33.10
2022-11-27T19:36:39.928Z,31.30
2022-11-27T19:37:46.403Z,31.40
2022-11-27T19:38:56.043Z,31.60
2022-11-27T19:40:00.388Z,31.80
2022-11-27T19:41:08.577Z,29.60
2022-11-27T19:42:13.092Z,31.90
2022-11-27T19:43:18.664Z,33.00
2022-11-27T19:44:24.379Z,31.50
2022-11-27T19:45:29.874Z,32.50
2022-11-27T19:46:36.836Z,32.20
2022-11-27T19:47:41.206Z,31.70
2022-11-27T19:48:45.813Z,31.10
2022-11-27T19:49:50.592Z,34.00
2022-11-27T19:51:01.868Z,31.80
2022-11-27T19:52:06.664Z,30.50
2022-11-27T19:53:12.714Z,31.50
2022-11-27T19:54:21.089Z,32.70
2022-11-27T19:55:26.911Z,30.80
2022-11-27T19:56:35.322Z,32.00
2022-11-27T19:57:39.470Z,31.90
2022-11-27T19:58:44.930Z,32.30
2022-11-27T19:59:50.772Z,33.20
2022-11-27T20:01:24.760Z,33.50
2022-11-27T20:02:32.853Z,32.40
2022-11-27T20:03:38.765Z,32.20
2022-11-27T20:04:43.145Z,31.60
2022-11-27T20:05:47.585Z,33.80
2022-11-27T20:06:53.667Z,31.60
2022-11-27T20:07:59.910Z,32.80
2022-11-27T20:09:09.292Z,31.90
2022-11-27T20:10:16.977Z,31.00
2022-11-27T20:11:32.828Z,30.70
2022-11-27T20:12:44.790Z,31.20
2022-11-27T20:13:50.896Z,30.80
2022-11-27T20:14:55.078Z,31.30
2022-11-27T20:15:59.584Z,31.70
2022-11-27T20:17:06.140Z,30.80
2022-11-27T20:18:10.191Z,31.80
2022-11-27T20:19:18.280Z,30.90
2022-11-27T20:20:22.823Z,30.10
2022-11-27T20:21:32.226Z,35.80
2022-11-27T20:22:37.756Z,40.00
2022-11-27T20:23:43.779Z,44.50
2022-11-27T20:25:17.370Z,49.40
2022-11-27T20:26:21.106Z,50.60
2022-11-27T20:27:27.057Z,55.70
2022-11-27T20:28:31.594Z,56.40
2022-11-27T20:29:36.801Z,57.40
2022-11-27T20:30:44.932Z,55.90
2022-11-27T20:31:50.483Z,56.50
2022-11-27T20:32:59.366Z,55.60
2022-11-27T20:34:09.909Z,54.70
2022-11-27T20:35:14.271Z,53.60
2022-11-27T20:36:23.491Z,56.10
2022-11-27T20:37:28.557Z,56.30
2022-11-27T20:38:32.317Z,56.80
2022-11-27T20:39:37.076Z,56.60
2022-11-27T20:40:42.049Z,54.90
2022-11-27T20:41:46.571Z,57.90
2022-11-27T20:42:52.389Z,55.20
2022-11-27T20:43:58.989Z,54.70
2022-11-27T20:45:05.480Z,55.30
2022-11-27T20:46:12.322Z,53.30
2022-11-27T20:47:16.515Z,53.40
2022-11-27T20:48:20.961Z,52.60
2022-11-27T20:49:26.280Z,51.80
2022-11-27T20:50:30.236Z,51.70
2022-11-27T20:51:36.589Z,51.50
2022-11-27T20:52:45.632Z,52.80
2022-11-27T20:53:50.080Z,55.20
2022-11-27T20:54:55.420Z,57.30
2022-11-27T20:56:09.653Z,56.90
2022-11-27T20:57:18.778Z,59.20
2022-11-27T20:58:23.800Z,59.00
2022-11-27T20:59:29.191Z,58.00
2022-11-27T21:00:40.742Z,61.80
2022-11-27T21:01:44.946Z,63.00
2022-11-27T21:02:50.988Z,61.40
2022-11-27T21:03:57.470Z,62.30
2022-11-27T21:05:01.727Z,61.70
2022-11-27T21:06:06.018Z,60.50
2022-11-27T21:07:11.111Z,60.90
2022-11-27T21:08:15.021Z,60.20
2022-11-27T21:09:21.107Z,59.20
2022-11-27T21:10:27.917Z,58.80
2022-11-27T21:11:33.240Z,60.60
2022-11-27T21:12:38.538Z,59.60
2022-11-27T21:13:43.207Z,58.40
2022-11-27T21:14:46.835Z,59.60
2022-11-27T21:15:50.261Z,59.00
2022-11-27T21:17:04.516Z,59.00
2022-11-27T21:18:10.704Z,58.20
2022-11-27T21:19:22.718Z,59.30
2022-11-27T21:20:30.295Z,58.90
2022-11-27T21:21:35.404Z,57.00
2022-11-27T21:22:43.143Z,57.90
2022-11-27T21:23:50.305Z,55.80
2022-11-27T21:24:57.419Z,56.90
2022-11-27T21:26:06.355Z,55.30
2022-11-27T21:27:12.814Z,55.10
2022-11-27T21:28:18.828Z,54.30
2022-11-27T21:29:25.690Z,57.30
2022-11-27T21:30:30.632Z,55.70
2022-11-27T21:31:38.873Z,57.00
2022-11-27T21:32:45.374Z,56.30
2022-11-27T21:34:00.061Z,55.10
2022-11-27T21:35:04.635Z,54.80
2022-11-27T21:36:10.713Z,54.60
2022-11-27T21:37:14.928Z,52.70
2022-11-27T21:38:24.264Z,54.00
2022-11-27T21:39:30.868Z,53.70
2022-11-27T21:40:38.806Z,53.70
2022-11-27T21:41:43.012Z,53.00
2022-11-27T21:42:50.257Z,54.30
2022-11-27T21:44:02.196Z,53.20
2022-11-27T21:45:06.759Z,53.70
2022-11-27T21:46:18.397Z,51.60
2022-11-27T21:47:22.803Z,53.90
2022-11-27T21:48:26.503Z,52.60
2022-11-27T21:49:30.278Z,54.70
2022-11-27T21:50:36.532Z,54.50
2022-11-27T21:51:41.477Z,50.50
2022-11-27T21:52:47.253Z,53.50
2022-11-27T21:53:52.837Z,54.60
2022-11-27T21:54:58.472Z,55.00
2022-11-27T21:56:07.194Z,53.40
2022-11-27T21:57:10.938Z,53.60
2022-11-27T21:58:16.498Z,53.10
2022-11-27T21:59:20.423Z,53.90
2022-11-27T22:00:24.576Z,55.20
2022-11-27T22:01:29.967Z,51.40
2022-11-27T22:02:33.956Z,50.70
2022-11-27T22:03:42.560Z,52.70
2022-11-27T22:04:47.328Z,51.20
2022-11-27T22:05:59.122Z,52.70
2022-11-27T22:07:02.438Z,50.40
2022-11-27T22:08:05.989Z,51.20
2022-11-27T22:09:15.064Z,53.50
2022-11-27T22:10:20.135Z,52.10
2022-11-27T22:11:32.631Z,51.80
2022-11-27T22:12:36.617Z,53.70
2022-11-27T22:13:44.945Z,50.90
2022-11-27T22:14:50.512Z,51.30
2022-11-27T22:15:56.175Z,51.20
2022-11-27T22:17:00.602Z,52.30
2022-11-27T22:18:06.061Z,51.50
2022-11-27T22:19:10.582Z,50.30
2022-11-27T22:20:16.093Z,50.50
2022-11-27T22:21:20.525Z,50.10
2022-11-27T22:22:24.322Z,51.70
2022-11-27T22:23:30.263Z,51.10
2022-11-27T22:24:34.136Z,51.10
2022-11-27T22:25:38.417Z,52.10
2022-11-27T22:26:42.497Z,50.80
2022-11-27T22:27:46.369Z,51.40
2022-11-27T22:28:50.910Z,51.50
2022-11-27T22:29:56.623Z,52.80
2022-11-27T22:31:00.316Z,48.00
2022-11-27T22:32:06.280Z,50.70
2022-11-27T22:33:10.121Z,50.40
2022-11-27T22:34:17.408Z,50.30
2022-11-27T22:35:22.637Z,47.70
2022-11-27T22:36:28.297Z,50.20
2022-11-27T22:37:31.832Z,50.90
2022-11-27T22:38:38.066Z,50.00
2022-11-27T22:39:43.887Z,50.90
2022-11-27T22:40:50.192Z,50.20
2022-11-27T22:41:54.496Z,50.50
2022-11-27T22:43:00.321Z,51.30
2022-11-27T22:44:09.164Z,48.40
2022-11-27T22:45:12.939Z,47.20
2022-11-27T22:46:21.165Z,47.20
2022-11-27T22:47:24.760Z,45.80
2022-11-27T22:48:29.615Z,46.80
2022-11-27T22:49:34.767Z,46.10
2022-11-27T22:50:39.301Z,44.40
2022-11-27T22:51:44.540Z,45.50
2022-11-27T22:52:48.708Z,45.30
2022-11-27T22:53:56.950Z,45.90
2022-11-27T22:55:00.808Z,46.70
2022-11-27T22:56:07.968Z,46.50
2022-11-27T22:57:11.609Z,48.30
2022-11-27T22:58:15.297Z,45.50
2022-11-27T22:59:36.323Z,45.50
2022-11-27T23:00:42.318Z,45.30
2022-11-27T23:01:47.304Z,46.20
2022-11-27T23:02:51.382Z,46.60
2022-11-27T23:03:59.115Z,45.70
2022-11-27T23:05:04.096Z,45.20
2022-11-27T23:06:12.008Z,44.50
2022-11-27T23:07:17.798Z,43.60
2022-11-27T23:08:25.072Z,43.60
2022-11-27T23:09:29.374Z,44.40
2022-11-27T23:10:33.386Z,45.70
2022-11-27T23:11:37.476Z,42.90
2022-11-27T23:12:41.511Z,46.20
2022-11-27T23:13:49.824Z,44.80
2022-11-27T23:14:55.334Z,44.30
2022-11-27T23:16:02.075Z,44.40
2022-11-27T23:17:06.374Z,42.80
2022-11-27T23:18:11.065Z,43.70
2022-11-27T23:19:16.517Z,44.00
2022-11-27T23:20:20.364Z,44.90
2022-11-27T23:21:27.072Z,43.80
2022-11-27T23:22:31.114Z,44.40
2022-11-27T23:23:35.279Z,44.00
2022-11-27T23:24:40.336Z,42.60
2022-11-27T23:25:44.111Z,43.70
2022-11-27T23:26:48.300Z,45.60
2022-11-27T23:27:51.913Z,44.60
2022-11-27T23:28:56.698Z,43.60
2022-11-27T23:30:00.481Z,44.50
2022-11-27T23:31:28.848Z,45.40
2022-11-27T23:32:34.228Z,42.70
2022-11-27T23:33:41.016Z,44.30
2022-11-27T23:34:44.810Z,45.30
2022-11-27T23:35:48.537Z,45.00
2022-11-27T23:36:54.396Z,44.50
2022-11-27T23:37:58.527Z,43.10
2022-11-27T23:39:05.554Z,44.80
2022-11-27T23:40:09.658Z,44.60
2022-11-27T23:41:15.800Z,44.10
2022-11-27T23:42:19.503Z,44.50
2022-11-27T23:43:24.116Z,44.70
2022-11-27T23:44:27.808Z,45.90
2022-11-27T23:45:31.533Z,43.90
2022-11-27T23:46:35.638Z,44.90
2022-11-27T23:47:41.244Z,47.80
2022-11-27T23:48:45.981Z,46.70
2022-11-27T23:49:50.981Z,46.40
2022-11-27T23:50:54.943Z,49.50
2022-11-27T23:51:59.621Z,48.20
2022-11-27T23:53:05.074Z,47.90
2022-11-27T23:54:10.287Z,47.70
2022-11-27T23:55:15.650Z,49.40
2022-11-27T23:56:25.492Z,49.40
2022-11-27T23:57:29.491Z,51.20
2022-11-27T23:58:33.285Z,50.70
2022-11-27T23:59:38.444Z,49.70
